createdAt,value
2023-04-29T00:01:26.089Z,195.33
2023-04-29T00:03:54.129Z,201.60
2023-04-29T00:06:21.707Z,200.00
2023-04-29T00:08:48.963Z,196.50
2023-04-29T00:11:16.143Z,215.80
2023-04-29T00:13:43.259Z,215.50
2023-04-29T00:16:11.436Z,216.97
2023-04-29T00:18:38.430Z,228.73
2023-04-29T00:21:08.130Z,204.03
2023-04-29T00:23:35.477Z,219.17
2023-04-29T00:26:02.694Z,215.47
2023-04-29T00:28:29.774Z,213.77
2023-04-29T00:30:57.188Z,211.10
2023-04-29T00:33:24.309Z,209.93
2023-04-29T00:35:51.691Z,232.67
2023-04-29T00:38:18.658Z,218.27
2023-04-29T00:40:45.964Z,244.03
2023-04-29T00:43:13.992Z,201.87
2023-04-29T00:45:41.095Z,270.77
2023-04-29T00:48:08.250Z,220.03
2023-04-29T00:50:36.750Z,208.37
2023-04-29T00:53:04.215Z,222.97
2023-04-29T00:55:33.325Z,219.57
2023-04-29T00:58:02.600Z,227.27
2023-04-29T01:00:30.343Z,202.63
2023-04-29T01:02:59.757Z,202.50
2023-04-29T01:05:27.307Z,201.33
2023-04-29T01:08:17.115Z,208.57
2023-04-29T01:10:55.361Z,217.97
2023-04-29T01:13:41.229Z,207.37
2023-04-29T01:16:16.128Z,223.33
2023-04-29T01:18:59.402Z,222.20
2023-04-29T01:21:32.012Z,235.80
2023-04-29T01:23:58.965Z,212.47
2023-04-29T01:26:32.574Z,230.10
2023-04-29T01:29:32.546Z,216.37
2023-04-29T01:32:15.070Z,200.33
2023-04-29T01:34:58.988Z,211.43
2023-04-29T01:37:42.647Z,201.57
2023-04-29T01:40:22.517Z,217.57
2023-04-29T01:43:14.548Z,216.73
2023-04-29T01:45:45.303Z,204.97
2023-04-29T01:48:13.577Z,205.33
2023-04-29T01:50:41.502Z,209.40
2023-04-29T01:53:11.899Z,207.17
2023-04-29T01:55:39.318Z,225.37
2023-04-29T01:58:18.293Z,204.90
2023-04-29T02:01:06.977Z,211.13
2023-04-29T02:03:36.512Z,223.83
2023-04-29T02:06:07.692Z,221.00
2023-04-29T02:08:36.144Z,222.63
2023-04-29T02:11:03.181Z,205.00
2023-04-29T02:13:36.394Z,224.27
2023-04-29T02:16:15.337Z,214.23
2023-04-29T02:19:02.607Z,203.07
2023-04-29T02:21:29.637Z,243.97
2023-04-29T02:23:56.909Z,210.13
2023-04-29T02:26:25.025Z,255.80
2023-04-29T02:28:56.521Z,208.47
2023-04-29T02:31:23.663Z,227.07
2023-04-29T02:33:51.317Z,225.77
2023-04-29T02:36:18.408Z,208.70
2023-04-29T02:38:45.348Z,209.23
2023-04-29T02:41:19.126Z,212.30
2023-04-29T02:43:49.092Z,215.10
2023-04-29T02:46:16.800Z,277.80
2023-04-29T02:48:43.846Z,218.10
2023-04-29T02:51:11.253Z,231.00
2023-04-29T02:53:38.242Z,225.67
2023-04-29T02:56:06.173Z,212.00
2023-04-29T02:58:33.165Z,247.43
2023-04-29T03:01:00.184Z,239.73
2023-04-29T03:03:27.350Z,258.20
2023-04-29T03:05:54.887Z,232.83
2023-04-29T03:08:22.251Z,204.50
2023-04-29T03:10:49.245Z,217.30
2023-04-29T03:13:16.400Z,195.60
2023-04-29T03:15:44.885Z,236.60
2023-04-29T03:18:12.084Z,228.43
2023-04-29T03:20:39.095Z,224.20
2023-04-29T03:23:06.048Z,216.53
2023-04-29T03:25:33.077Z,214.30
2023-04-29T03:28:00.064Z,223.20
2023-04-29T03:30:27.145Z,214.67
2023-04-29T03:32:57.511Z,227.20
2023-04-29T03:35:26.000Z,195.20
2023-04-29T03:38:22.100Z,205.37
2023-04-29T03:40:49.651Z,207.80
2023-04-29T03:43:18.234Z,199.40
2023-04-29T03:45:45.273Z,216.37
2023-04-29T03:48:15.518Z,194.33
2023-04-29T03:50:42.531Z,201.13
2023-04-29T03:53:09.631Z,225.43
2023-04-29T03:55:36.666Z,203.83
2023-04-29T03:58:04.220Z,243.13
2023-04-29T04:00:32.596Z,222.77
2023-04-29T04:03:05.580Z,194.30
2023-04-29T04:05:34.624Z,260.60
2023-04-29T04:08:07.754Z,208.60
2023-04-29T04:10:34.894Z,195.10
2023-04-29T04:13:05.931Z,218.10
2023-04-29T04:15:33.142Z,220.97
2023-04-29T04:18:00.727Z,197.70
2023-04-29T04:20:27.836Z,196.57
2023-04-29T04:22:55.019Z,189.80
2023-04-29T04:25:25.644Z,196.10
2023-04-29T04:27:55.757Z,215.63
2023-04-29T04:30:36.065Z,195.53
2023-04-29T04:33:04.084Z,234.23
2023-04-29T04:35:32.535Z,197.07
2023-04-29T04:37:59.497Z,215.70
2023-04-29T04:40:27.914Z,208.27
2023-04-29T04:43:15.589Z,208.10
2023-04-29T04:45:43.113Z,202.57
2023-04-29T04:48:10.395Z,224.33
2023-04-29T04:50:40.141Z,222.87
2023-04-29T04:53:07.178Z,199.63
2023-04-29T04:55:44.343Z,206.23
2023-04-29T04:58:11.379Z,193.60
2023-04-29T05:00:44.266Z,192.87
2023-04-29T05:03:11.645Z,252.23
2023-04-29T05:05:38.983Z,228.23
2023-04-29T05:08:06.013Z,213.87
2023-04-29T05:10:39.175Z,202.23
2023-04-29T05:13:07.412Z,238.43
2023-04-29T05:15:35.820Z,262.73
2023-04-29T05:18:04.456Z,344.63
2023-04-29T05:20:32.219Z,283.33
2023-04-29T05:23:01.843Z,358.90
2023-04-29T05:25:31.579Z,199.10
2023-04-29T05:27:58.732Z,204.27
2023-04-29T05:30:28.008Z,206.73
2023-04-29T05:32:55.011Z,210.03
2023-04-29T05:35:22.582Z,208.03
2023-04-29T05:37:49.714Z,215.60
2023-04-29T05:40:27.433Z,204.23
2023-04-29T05:43:03.797Z,216.50
2023-04-29T05:45:30.891Z,199.20
2023-04-29T05:47:58.000Z,202.23
2023-04-29T05:50:25.053Z,197.90
2023-04-29T05:52:52.041Z,209.83
2023-04-29T05:55:19.656Z,215.97
2023-04-29T05:57:46.989Z,214.87
2023-04-29T06:00:14.271Z,256.53
2023-04-29T06:02:54.887Z,229.13
2023-04-29T06:05:26.485Z,224.53
2023-04-29T06:08:14.112Z,288.10
2023-04-29T06:10:44.669Z,269.13
2023-04-29T06:13:11.978Z,239.33
2023-04-29T06:15:39.506Z,282.37
2023-04-29T06:18:06.641Z,216.07
2023-04-29T06:20:34.866Z,225.40
2023-04-29T06:23:03.201Z,215.30
2023-04-29T06:25:30.191Z,205.37
2023-04-29T06:28:08.348Z,214.57
2023-04-29T06:30:35.418Z,226.37
2023-04-29T06:33:02.615Z,201.43
2023-04-29T06:35:29.652Z,331.90
2023-04-29T06:38:15.005Z,206.10
2023-04-29T06:41:01.032Z,225.43
2023-04-29T06:43:36.698Z,206.53
2023-04-29T06:46:29.168Z,229.53
2023-04-29T06:49:03.148Z,225.30
2023-04-29T06:51:32.225Z,212.30
2023-04-29T06:54:00.042Z,250.57
2023-04-29T06:56:27.226Z,222.07
2023-04-29T06:58:54.569Z,207.67
2023-04-29T07:01:22.077Z,261.63
2023-04-29T07:03:51.289Z,228.00
2023-04-29T07:06:19.634Z,239.87
2023-04-29T07:08:46.556Z,208.43
2023-04-29T07:11:15.603Z,208.60
2023-04-29T07:13:42.539Z,216.90
2023-04-29T07:16:18.431Z,218.33
2023-04-29T07:18:45.505Z,232.40
2023-04-29T07:21:12.518Z,235.63
2023-04-29T07:23:39.622Z,216.40
2023-04-29T07:26:15.983Z,232.03
2023-04-29T07:28:46.253Z,220.53
2023-04-29T07:31:14.547Z,215.57
2023-04-29T07:33:41.603Z,227.93
2023-04-29T07:36:11.263Z,221.13
2023-04-29T07:38:38.207Z,219.60
2023-04-29T07:41:05.383Z,228.13
2023-04-29T07:43:32.518Z,213.23
2023-04-29T07:45:59.961Z,246.40
2023-04-29T07:48:27.273Z,229.23
2023-04-29T07:50:54.696Z,218.07
2023-04-29T07:53:21.838Z,224.60
2023-04-29T07:55:50.795Z,212.87
2023-04-29T07:58:19.175Z,229.40
2023-04-29T08:00:47.292Z,212.40
2023-04-29T08:03:14.798Z,239.80
2023-04-29T08:05:43.437Z,221.93
2023-04-29T08:08:14.526Z,232.33
2023-04-29T08:10:43.206Z,237.10
2023-04-29T08:13:10.382Z,219.97
2023-04-29T08:15:37.460Z,247.90
2023-04-29T08:18:04.467Z,223.60
2023-04-29T08:20:31.457Z,221.35
2023-04-29T08:23:00.631Z,278.92
2023-04-29T08:25:27.662Z,218.82
2023-04-29T08:27:54.866Z,243.85
2023-04-29T08:30:22.394Z,234.15
2023-04-29T08:32:49.581Z,223.75
2023-04-29T08:35:16.860Z,224.55
2023-04-29T08:37:43.829Z,253.88
2023-04-29T08:40:11.240Z,236.32
2023-04-29T08:42:38.229Z,245.15
2023-04-29T08:45:06.228Z,306.90
2023-04-29T08:47:34.328Z,223.27
2023-04-29T08:50:05.954Z,269.25
2023-04-29T08:52:33.237Z,238.35
2023-04-29T08:55:02.645Z,228.63
2023-04-29T08:57:31.152Z,231.35
2023-04-29T09:00:01.338Z,247.07
2023-04-29T09:02:29.134Z,274.85
2023-04-29T09:05:09.053Z,228.52
2023-04-29T09:07:36.806Z,239.40
2023-04-29T09:10:05.786Z,255.52
2023-04-29T09:12:32.771Z,267.20
2023-04-29T09:15:00.210Z,272.58
2023-04-29T09:17:48.672Z,231.30
2023-04-29T09:20:22.233Z,415.67
2023-04-29T09:23:01.482Z,271.02
2023-04-29T09:25:28.762Z,231.63
2023-04-29T09:27:56.277Z,240.05
2023-04-29T09:30:23.814Z,238.70
2023-04-29T09:33:10.041Z,236.48
2023-04-29T09:35:40.956Z,220.93
2023-04-29T09:38:16.171Z,249.15
2023-04-29T09:40:58.367Z,240.00
2023-04-29T09:43:26.786Z,310.88
2023-04-29T09:45:54.161Z,331.67
2023-04-29T09:48:21.220Z,311.70
2023-04-29T09:51:04.631Z,268.58
2023-04-29T09:53:32.445Z,273.10
2023-04-29T09:56:02.147Z,247.95
2023-04-29T09:58:37.319Z,223.15
2023-04-29T10:01:06.046Z,291.65
2023-04-29T10:03:36.661Z,254.68
2023-04-29T10:06:06.585Z,295.38
2023-04-29T10:08:34.688Z,260.33
2023-04-29T10:11:03.966Z,339.80
2023-04-29T10:13:31.649Z,331.95
2023-04-29T10:16:30.756Z,371.42
2023-04-29T10:19:04.274Z,225.48
2023-04-29T10:21:31.976Z,259.23
2023-04-29T10:24:02.516Z,247.18
2023-04-29T10:26:30.412Z,306.77
2023-04-29T10:29:00.089Z,239.73
2023-04-29T10:31:27.922Z,247.80
2023-04-29T10:33:59.046Z,269.73
2023-04-29T10:36:28.577Z,288.80
2023-04-29T10:39:00.267Z,336.30
2023-04-29T10:41:31.848Z,312.48
2023-04-29T10:44:01.689Z,246.35
2023-04-29T10:46:30.171Z,234.55
2023-04-29T10:49:06.397Z,281.52
2023-04-29T10:51:35.478Z,248.60
2023-04-29T10:54:16.921Z,313.52
2023-04-29T10:56:54.120Z,303.80
2023-04-29T10:59:24.227Z,313.05
2023-04-29T11:01:53.407Z,234.82
2023-04-29T11:04:23.067Z,257.33
2023-04-29T11:06:59.219Z,293.23
2023-04-29T11:09:28.331Z,236.38
2023-04-29T11:12:03.490Z,310.10
2023-04-29T11:14:42.451Z,268.27
2023-04-29T11:17:14.829Z,261.70
2023-04-29T11:19:48.485Z,286.70
2023-04-29T11:22:27.638Z,312.73
2023-04-29T11:25:03.027Z,282.05
2023-04-29T11:27:36.499Z,261.90
2023-04-29T11:30:06.880Z,288.77
2023-04-29T11:32:40.425Z,261.98
2023-04-29T11:35:09.763Z,262.70
2023-04-29T11:37:37.589Z,264.15
2023-04-29T11:40:07.032Z,260.33
2023-04-29T11:42:52.176Z,233.43
2023-04-29T11:45:19.955Z,260.30
2023-04-29T11:47:48.599Z,258.88
2023-04-29T11:50:19.582Z,251.07
2023-04-29T11:52:48.155Z,243.63
2023-04-29T11:55:15.432Z,305.88
2023-04-29T11:57:42.530Z,254.15
2023-04-29T12:00:14.195Z,260.92
2023-04-29T12:02:46.548Z,297.05
2023-04-29T12:05:15.832Z,265.17
2023-04-29T12:07:43.801Z,281.85
2023-04-29T12:10:12.069Z,258.67
2023-04-29T12:12:42.349Z,296.70
2023-04-29T12:15:10.348Z,255.43
2023-04-29T12:17:38.580Z,257.20
2023-04-29T12:20:10.544Z,251.13
2023-04-29T12:22:38.123Z,276.27
2023-04-29T12:25:06.282Z,232.88
2023-04-29T12:27:37.000Z,272.05
2023-04-29T12:30:09.479Z,255.18
2023-04-29T12:32:37.192Z,276.10
2023-04-29T12:35:04.663Z,284.42
2023-04-29T12:37:31.684Z,363.33
2023-04-29T12:39:58.692Z,340.33
2023-04-29T12:42:34.113Z,337.17
2023-04-29T12:45:01.203Z,251.00
2023-04-29T12:47:37.231Z,236.02
2023-04-29T12:50:07.103Z,236.80
2023-04-29T12:52:35.947Z,230.20
2023-04-29T12:55:04.671Z,229.82
2023-04-29T12:57:31.768Z,242.73
2023-04-29T12:59:58.751Z,221.05
2023-04-29T13:02:26.353Z,230.88
2023-04-29T13:04:53.755Z,345.65
2023-04-29T13:07:21.058Z,306.60
2023-04-29T13:09:48.011Z,349.38
2023-04-29T13:12:14.917Z,316.65
2023-04-29T13:14:41.870Z,299.45
2023-04-29T13:17:09.040Z,333.67
2023-04-29T13:19:50.181Z,291.80
2023-04-29T13:22:19.095Z,333.45
2023-04-29T13:24:46.881Z,290.65
2023-04-29T13:27:14.017Z,287.33
2023-04-29T13:29:40.975Z,245.20
2023-04-29T13:32:08.921Z,292.45
2023-04-29T13:34:36.125Z,257.52
2023-04-29T13:37:03.171Z,299.67
2023-04-29T13:39:30.159Z,255.93
2023-04-29T13:41:59.202Z,280.52
2023-04-29T13:44:33.237Z,257.40
2023-04-29T13:47:06.617Z,280.25
2023-04-29T13:52:53.863Z,318.83
2023-04-29T13:55:21.965Z,286.25
2023-04-29T14:00:25.035Z,320.83
2023-04-29T14:05:26.442Z,295.38
2023-04-29T14:07:53.685Z,288.17
2023-04-29T14:10:21.060Z,296.65
2023-04-29T14:12:48.756Z,278.20
2023-04-29T14:15:16.344Z,251.38
2023-04-29T14:17:43.475Z,258.17
2023-04-29T14:20:10.926Z,278.17
2023-04-29T14:22:37.856Z,298.92
2023-04-29T14:25:05.695Z,297.75
2023-04-29T14:27:32.790Z,281.85
2023-04-29T14:29:59.813Z,295.92
2023-04-29T14:32:26.762Z,358.58
2023-04-29T14:34:53.865Z,394.73
2023-04-29T14:37:21.053Z,332.77
2023-04-29T14:39:47.964Z,319.05
2023-04-29T14:42:15.100Z,320.30
2023-04-29T14:44:42.101Z,290.58
2023-04-29T14:47:09.484Z,330.75
2023-04-29T14:49:36.463Z,254.68
2023-04-29T14:52:03.862Z,250.60
2023-04-29T14:54:31.136Z,355.25
2023-04-29T14:56:58.111Z,309.40
2023-04-29T14:59:25.115Z,264.63
2023-04-29T15:01:52.101Z,338.02
2023-04-29T15:04:19.170Z,278.52
2023-04-29T15:06:46.132Z,271.00
2023-04-29T15:09:13.347Z,266.13
2023-04-29T15:11:40.425Z,287.20
2023-04-29T15:14:07.395Z,287.98
2023-04-29T15:16:35.095Z,285.25
2023-04-29T15:19:02.115Z,275.65
2023-04-29T15:21:29.048Z,297.27
2023-04-29T15:23:56.017Z,292.02
2023-04-29T15:26:23.086Z,267.67
2023-04-29T15:28:50.376Z,276.75
2023-04-29T15:31:17.763Z,249.55
2023-04-29T15:33:44.859Z,293.55
2023-04-29T15:36:12.406Z,275.05
2023-04-29T15:38:39.888Z,249.25
2023-04-29T15:41:07.180Z,243.23
2023-04-29T15:43:34.704Z,243.70
2023-04-29T15:46:02.071Z,287.05
2023-04-29T15:48:29.133Z,259.50
2023-04-29T15:50:56.168Z,272.05
2023-04-29T15:53:23.394Z,273.48
2023-04-29T15:55:50.578Z,247.27
2023-04-29T15:58:17.599Z,272.13
2023-04-29T16:00:44.661Z,266.40
2023-04-29T16:03:11.701Z,273.70
2023-04-29T16:05:38.829Z,272.73
2023-04-29T16:08:06.689Z,257.77
2023-04-29T16:10:33.628Z,290.73
2023-04-29T16:13:01.058Z,304.15
2023-04-29T16:15:29.280Z,276.58
2023-04-29T16:17:56.278Z,255.43
2023-04-29T16:20:23.384Z,282.70
2023-04-29T16:22:50.332Z,250.18
2023-04-29T16:25:17.566Z,296.70
2023-04-29T16:27:44.717Z,275.85
2023-04-29T16:30:12.090Z,270.30
2023-04-29T16:32:41.487Z,271.70
2023-04-29T16:35:12.743Z,246.30
2023-04-29T16:37:39.759Z,247.60
2023-04-29T16:40:07.640Z,270.38
2023-04-29T16:42:34.625Z,314.33
2023-04-29T16:45:01.570Z,264.45
2023-04-29T16:47:28.569Z,273.58
2023-04-29T16:49:56.076Z,268.88
2023-04-29T16:52:24.089Z,283.27
2023-04-29T16:54:51.038Z,241.70
2023-04-29T16:57:18.049Z,242.65
2023-04-29T16:59:45.096Z,313.00
2023-04-29T17:02:12.396Z,239.57
2023-04-29T17:04:39.681Z,248.13
2023-04-29T17:07:09.324Z,258.88
2023-04-29T17:09:36.369Z,298.75
2023-04-29T17:12:04.209Z,255.52
2023-04-29T17:14:31.260Z,261.35
2023-04-29T17:16:58.438Z,276.73
2023-04-29T17:19:25.430Z,238.57
2023-04-29T17:21:53.250Z,264.27
2023-04-29T17:24:20.178Z,243.98
2023-04-29T17:26:47.136Z,266.70
2023-04-29T17:29:14.080Z,251.07
2023-04-29T17:31:54.121Z,274.50
2023-04-29T17:34:25.283Z,234.70
2023-04-29T17:36:53.720Z,303.70
2023-04-29T17:39:20.766Z,238.00
2023-04-29T17:41:47.692Z,316.85
2023-04-29T17:44:14.750Z,268.30
2023-04-29T17:46:42.677Z,296.63
2023-04-29T17:49:09.638Z,232.68
2023-04-29T17:51:36.654Z,270.00
2023-04-29T17:54:06.906Z,266.48
2023-04-29T17:56:35.246Z,264.92
2023-04-29T17:59:06.983Z,293.27
2023-04-29T18:01:35.224Z,257.00
2023-04-29T18:04:02.431Z,279.58
2023-04-29T18:06:30.314Z,241.20
2023-04-29T18:08:57.728Z,275.83
2023-04-29T18:11:25.140Z,275.42
2023-04-29T18:13:53.760Z,276.75
2023-04-29T18:16:20.926Z,298.75
2023-04-29T18:18:55.259Z,301.92
2023-04-29T18:21:25.559Z,286.60
2023-04-29T18:23:53.189Z,276.90
2023-04-29T18:26:20.636Z,284.90
2023-04-29T18:28:48.227Z,238.43
2023-04-29T18:31:20.831Z,243.90
2023-04-29T18:33:47.909Z,277.85
2023-04-29T18:36:14.898Z,268.40
2023-04-29T18:38:42.170Z,292.30
2023-04-29T18:41:09.303Z,273.00
2023-04-29T18:43:36.605Z,305.25
2023-04-29T18:46:03.816Z,334.95
2023-04-29T18:48:31.169Z,275.33
2023-04-29T18:51:00.390Z,317.15
2023-04-29T18:53:27.410Z,247.77
2023-04-29T18:55:54.626Z,271.00
2023-04-29T18:58:22.082Z,269.85
2023-04-29T19:00:49.166Z,279.00
2023-04-29T19:03:16.352Z,278.77
2023-04-29T19:05:43.629Z,225.45
2023-04-29T19:08:10.731Z,235.43
2023-04-29T19:10:37.692Z,241.68
2023-04-29T19:13:04.654Z,232.95
2023-04-29T19:15:32.090Z,227.10
2023-04-29T19:17:59.217Z,272.77
2023-04-29T19:20:26.728Z,275.83
2023-04-29T19:22:53.718Z,269.92
2023-04-29T19:25:21.708Z,274.42
2023-04-29T19:27:48.959Z,295.40
2023-04-29T19:30:16.582Z,277.08
2023-04-29T19:32:46.207Z,289.98
2023-04-29T19:35:13.373Z,282.00
2023-04-29T19:37:40.845Z,309.70
2023-04-29T19:40:11.238Z,236.57
2023-04-29T19:42:39.512Z,291.00
2023-04-29T19:45:07.973Z,275.17
2023-04-29T19:47:35.555Z,274.00
2023-04-29T19:50:03.050Z,250.90
2023-04-29T19:52:30.070Z,245.48
2023-04-29T19:54:57.254Z,237.95
2023-04-29T19:57:25.039Z,241.32
2023-04-29T19:59:52.527Z,228.25
2023-04-29T20:02:19.863Z,322.83
2023-04-29T20:04:48.170Z,307.42
2023-04-29T20:07:15.180Z,329.98
2023-04-29T20:09:42.393Z,263.90
2023-04-29T20:12:09.339Z,224.20
2023-04-29T20:14:36.446Z,294.40
2023-04-29T20:17:03.590Z,291.73
2023-04-29T20:19:31.347Z,240.43
2023-04-29T20:21:58.475Z,240.18
2023-04-29T20:24:25.438Z,339.48
2023-04-29T20:26:52.350Z,316.67
2023-04-29T20:29:19.287Z,375.90
2023-04-29T20:31:46.345Z,345.23
2023-04-29T20:34:13.530Z,343.50
2023-04-29T20:36:40.728Z,262.50
2023-04-29T20:39:09.331Z,387.63
2023-04-29T20:41:36.314Z,275.55
2023-04-29T20:44:03.639Z,268.15
2023-04-29T20:46:30.723Z,281.63
2023-04-29T20:48:57.826Z,264.13
2023-04-29T20:51:24.931Z,270.17
2023-04-29T20:53:51.996Z,246.32
2023-04-29T20:56:18.956Z,259.70
2023-04-29T20:58:45.991Z,298.95
2023-04-29T21:01:12.969Z,358.05
2023-04-29T21:03:40.498Z,356.90
2023-04-29T21:06:07.824Z,343.73
2023-04-29T21:08:34.905Z,270.85
2023-04-29T21:11:01.912Z,294.13
2023-04-29T21:13:28.912Z,304.33
2023-04-29T21:15:55.913Z,285.40
2023-04-29T21:18:23.157Z,326.50
2023-04-29T21:20:51.181Z,351.75
2023-04-29T21:23:18.355Z,279.83
2023-04-29T21:25:45.432Z,331.10
2023-04-29T21:28:12.835Z,313.57
2023-04-29T21:30:40.932Z,296.47
2023-04-29T21:33:07.958Z,279.20
2023-04-29T21:35:34.978Z,258.97
2023-04-29T21:38:01.911Z,305.08
2023-04-29T21:40:28.941Z,271.27
2023-04-29T21:42:58.146Z,247.90
2023-04-29T21:45:25.070Z,250.80
2023-04-29T21:47:52.755Z,293.88
2023-04-29T21:50:19.926Z,251.30
2023-04-29T21:52:46.916Z,276.40
2023-04-29T21:55:13.923Z,308.77
2023-04-29T21:57:44.545Z,275.85
2023-04-29T22:00:32.791Z,293.23
2023-04-29T22:03:01.710Z,308.67
2023-04-29T22:05:29.138Z,284.42
2023-04-29T22:07:58.676Z,281.43
2023-04-29T22:10:25.778Z,298.20
2023-04-29T22:12:52.769Z,303.40
2023-04-29T22:15:28.302Z,302.97
2023-04-29T22:17:56.948Z,279.77
2023-04-29T22:20:24.472Z,297.60
2023-04-29T22:22:52.236Z,296.17
2023-04-29T22:25:20.973Z,267.98
2023-04-29T22:27:48.784Z,296.73
2023-04-29T22:30:17.607Z,254.73
2023-04-29T22:32:44.968Z,276.03
2023-04-29T22:35:12.301Z,252.10
2023-04-29T22:37:39.210Z,249.90
2023-04-29T22:40:07.614Z,329.38
2023-04-29T22:42:34.622Z,282.13
2023-04-29T22:45:01.658Z,264.17
2023-04-29T22:47:28.965Z,242.73
2023-04-29T22:49:56.120Z,265.17
2023-04-29T22:52:23.234Z,313.47
2023-04-29T22:54:50.162Z,247.33
2023-04-29T22:57:17.106Z,275.33
2023-04-29T22:59:44.126Z,260.93
2023-04-29T23:02:11.953Z,264.40
2023-04-29T23:04:39.072Z,272.75
2023-04-29T23:07:06.182Z,257.77
2023-04-29T23:09:33.603Z,303.37
2023-04-29T23:12:01.102Z,340.10
2023-04-29T23:14:28.092Z,289.77
2023-04-29T23:16:56.156Z,254.20
2023-04-29T23:19:23.103Z,289.07
2023-04-29T23:21:50.025Z,258.23
2023-04-29T23:24:17.094Z,264.57
2023-04-29T23:26:44.644Z,266.27
2023-04-29T23:29:11.551Z,244.63
2023-04-29T23:31:38.534Z,269.30
2023-04-29T23:34:05.566Z,258.97
2023-04-29T23:36:32.576Z,260.30
2023-04-29T23:38:59.629Z,339.88
2023-04-29T23:41:26.609Z,320.87
2023-04-29T23:43:54.765Z,337.00
2023-04-29T23:46:21.736Z,320.50
2023-04-29T23:48:48.679Z,331.90
2023-04-29T23:51:15.614Z,261.57
2023-04-29T23:53:42.625Z,337.50
2023-04-29T23:56:09.594Z,356.07
2023-04-29T23:58:36.533Z,250.07
